createdAt,value
2018-12-06T00:03:03.988Z,6.50
2018-12-06T00:08:16.132Z,6.37
2018-12-06T00:13:18.913Z,6.87
2018-12-06T00:18:21.798Z,7.03
2018-12-06T00:23:24.828Z,6.27
2018-12-06T00:28:27.716Z,6.80
2018-12-06T00:33:30.628Z,6.37
2018-12-06T00:38:33.654Z,6.37
2018-12-06T00:43:36.420Z,6.97
2018-12-06T00:48:39.187Z,7.17
2018-12-06T00:53:42.157Z,6.27
2018-12-06T00:58:44.905Z,6.10
2018-12-06T01:03:47.811Z,6.77
2018-12-06T01:08:50.731Z,6.57
2018-12-06T01:13:53.562Z,6.90
2018-12-06T01:18:56.412Z,7.13
2018-12-06T01:23:59.442Z,6.83
2018-12-06T01:29:02.321Z,7.00
2018-12-06T01:34:05.207Z,6.87
2018-12-06T01:39:08.330Z,7.00
2018-12-06T01:44:11.011Z,6.70
2018-12-06T01:49:13.869Z,6.67
2018-12-06T01:54:16.706Z,6.37
2018-12-06T01:59:19.627Z,6.13
2018-12-06T02:04:22.353Z,6.30
2018-12-06T02:09:25.196Z,6.77
2018-12-06T02:14:27.977Z,6.80
2018-12-06T02:19:30.776Z,6.77
2018-12-06T02:24:34.196Z,6.40
2018-12-06T02:29:42.920Z,5.87
2018-12-06T02:34:45.773Z,6.33
2018-12-06T02:39:48.656Z,5.83
2018-12-06T02:44:51.458Z,6.53
2018-12-06T02:49:54.250Z,6.53
2018-12-06T02:54:57.138Z,5.83
2018-12-06T02:59:59.959Z,7.10
2018-12-06T03:05:02.937Z,5.80
2018-12-06T03:10:05.986Z,6.23
2018-12-06T03:15:09.099Z,6.03
2018-12-06T03:20:12.132Z,6.07
2018-12-06T03:25:14.795Z,5.87
2018-12-06T03:30:17.771Z,5.90
2018-12-06T03:35:20.727Z,6.47
2018-12-06T03:40:23.603Z,5.80
2018-12-06T03:45:27.032Z,5.30
2018-12-06T03:50:29.648Z,6.20
2018-12-06T03:55:32.389Z,5.90
2018-12-06T04:00:35.051Z,5.87
2018-12-06T04:05:37.700Z,5.70
2018-12-06T04:10:40.364Z,5.90
2018-12-06T04:15:43.081Z,5.63
2018-12-06T04:20:46.011Z,5.60
2018-12-06T04:25:48.829Z,6.07
2018-12-06T04:30:51.634Z,5.73
2018-12-06T04:35:56.414Z,6.10
2018-12-06T04:40:59.081Z,4.70
2018-12-06T04:46:01.748Z,5.20
2018-12-06T04:51:04.743Z,5.33
2018-12-06T04:56:07.476Z,4.90
2018-12-06T05:01:10.171Z,5.80
2018-12-06T05:06:13.385Z,5.13
2018-12-06T05:11:16.289Z,5.17
2018-12-06T05:16:19.166Z,5.43
2018-12-06T05:21:21.981Z,5.40
2018-12-06T05:26:24.902Z,5.70
2018-12-06T05:31:27.644Z,5.03
2018-12-06T05:36:30.512Z,5.10
2018-12-06T05:41:33.418Z,5.00
2018-12-06T05:46:36.280Z,5.03
2018-12-06T05:51:39.520Z,4.70
2018-12-06T05:56:42.271Z,5.23
2018-12-06T06:01:45.202Z,5.37
2018-12-06T06:06:48.076Z,4.83
2018-12-06T06:11:51.295Z,4.70
2018-12-06T06:16:54.172Z,4.87
2018-12-06T06:21:56.844Z,4.70
2018-12-06T06:26:59.884Z,4.53
2018-12-06T06:32:02.845Z,4.67
2018-12-06T06:37:05.855Z,4.50
2018-12-06T06:42:08.666Z,5.00
2018-12-06T06:47:11.853Z,5.23
2018-12-06T06:52:14.815Z,4.47
2018-12-06T06:57:17.865Z,5.00
2018-12-06T07:02:20.745Z,4.83
2018-12-06T07:07:23.632Z,6.13
2018-12-06T07:12:26.677Z,4.77
2018-12-06T07:17:29.479Z,5.07
2018-12-06T07:22:32.955Z,4.90
2018-12-06T07:27:36.720Z,5.17
2018-12-06T07:32:41.425Z,5.40
2018-12-06T07:37:44.316Z,5.13
2018-12-06T07:42:48.741Z,5.13
2018-12-06T07:47:53.021Z,5.00
2018-12-06T07:52:55.869Z,5.63
2018-12-06T07:57:58.770Z,5.43
2018-12-06T08:03:01.653Z,5.37
2018-12-06T08:08:04.525Z,5.93
2018-12-06T08:13:09.519Z,5.70
2018-12-06T08:18:13.154Z,5.60
2018-12-06T08:23:16.127Z,5.43
2018-12-06T08:34:20.386Z,5.23
2018-12-06T08:39:23.440Z,5.50
2018-12-06T08:44:26.372Z,5.27
2018-12-06T08:49:29.577Z,5.87
2018-12-06T08:54:32.504Z,5.37
2018-12-06T09:04:53.044Z,5.00
2018-12-06T09:09:56.600Z,5.50
2018-12-06T09:14:59.458Z,5.03
2018-12-06T09:20:02.282Z,4.77
2018-12-06T09:30:27.085Z,4.60
2018-12-06T09:35:31.105Z,4.80
2018-12-06T09:40:33.853Z,4.90
2018-12-06T09:45:38.088Z,4.57
2018-12-06T09:50:41.091Z,5.37
2018-12-06T09:55:48.713Z,5.30
2018-12-06T10:00:56.298Z,4.93
2018-12-06T10:06:00.520Z,5.07
2018-12-06T10:11:03.609Z,5.17
2018-12-06T10:21:32.576Z,5.40
2018-12-06T10:26:35.361Z,5.10
2018-12-06T10:37:04.117Z,5.73
2018-12-06T10:42:07.153Z,5.57
2018-12-06T10:47:09.996Z,5.50
2018-12-06T10:52:12.849Z,4.97
2018-12-06T10:57:20.207Z,4.77
2018-12-06T11:02:30.097Z,5.30
2018-12-06T11:07:34.596Z,4.80
2018-12-06T11:12:37.929Z,5.07
2018-12-06T11:17:40.597Z,4.90
2018-12-06T11:22:44.012Z,4.93
2018-12-06T11:27:46.699Z,4.63
2018-12-06T11:32:50.225Z,5.50
2018-12-06T11:37:53.006Z,5.67
2018-12-06T11:42:55.895Z,5.77
2018-12-06T11:47:59.480Z,5.03
2018-12-06T11:53:02.235Z,4.87
2018-12-06T11:58:11.459Z,5.67
2018-12-06T12:03:09.973Z,5.30
2018-12-06T12:08:12.897Z,6.20
2018-12-06T12:13:16.837Z,6.27
2018-12-06T12:18:23.541Z,5.37
2018-12-06T12:23:26.832Z,5.70
2018-12-06T12:28:29.841Z,6.07
2018-12-06T12:33:33.626Z,6.20
2018-12-06T12:38:39.383Z,6.10
2018-12-06T12:43:43.079Z,5.27
2018-12-06T12:48:45.917Z,6.40
2018-12-06T12:53:55.684Z,6.13
2018-12-06T12:58:58.221Z,6.83
2018-12-06T13:04:01.220Z,6.03
2018-12-06T13:09:07.132Z,6.40
2018-12-06T13:14:12.521Z,6.60
2018-12-06T13:19:15.363Z,5.93
2018-12-06T13:24:18.785Z,7.20
2018-12-06T13:29:21.613Z,7.00
2018-12-06T13:34:24.400Z,7.90
2018-12-06T13:44:51.022Z,6.90
2018-12-06T13:49:53.794Z,7.47
2018-12-06T13:54:56.863Z,7.30
2018-12-06T13:59:59.676Z,7.13
2018-12-06T14:05:04.083Z,7.20
2018-12-06T14:15:20.707Z,7.65
2018-12-06T14:20:23.733Z,7.23
2018-12-06T14:25:26.720Z,7.63
2018-12-06T14:30:29.702Z,8.13
2018-12-06T14:35:32.648Z,8.30
2018-12-06T14:40:35.601Z,8.77
2018-12-06T14:45:38.846Z,8.50
2018-12-06T14:50:42.978Z,9.03
2018-12-06T14:55:45.833Z,9.03
2018-12-06T15:00:48.790Z,9.00
2018-12-06T15:11:15.184Z,9.13
2018-12-06T15:16:18.056Z,9.50
2018-12-06T15:21:20.920Z,8.93
2018-12-06T15:26:23.762Z,9.17
2018-12-06T15:31:30.232Z,9.23
2018-12-06T15:36:33.267Z,8.13
2018-12-06T15:41:36.190Z,9.57
2018-12-06T15:46:39.122Z,9.30
2018-12-06T15:51:42.165Z,10.33
2018-12-06T15:56:46.021Z,10.90
2018-12-06T16:01:49.756Z,11.33
2018-12-06T16:06:53.256Z,11.23
2018-12-06T16:11:56.225Z,11.73
2018-12-06T16:16:59.193Z,12.40
2018-12-06T16:22:02.179Z,12.40
2018-12-06T16:27:05.316Z,12.60
2018-12-06T16:32:09.739Z,12.00
2018-12-06T16:37:20.836Z,13.10
2018-12-06T16:42:23.510Z,12.53
2018-12-06T16:47:26.614Z,12.63
2018-12-06T16:52:29.519Z,13.43
2018-12-06T17:02:56.194Z,14.18
2018-12-06T17:07:59.342Z,15.13
2018-12-06T17:13:02.439Z,14.40
2018-12-06T17:18:06.244Z,14.67
2018-12-06T17:23:09.074Z,15.70
2018-12-06T17:28:12.120Z,14.90
2018-12-06T17:33:14.888Z,14.30
2018-12-06T17:38:22.373Z,15.97
2018-12-06T17:43:25.290Z,15.87
2018-12-06T17:48:28.969Z,16.33
2018-12-06T17:53:31.857Z,17.03
2018-12-06T17:58:35.197Z,15.93
2018-12-06T18:03:38.122Z,16.03
2018-12-06T18:08:41.033Z,16.60
2018-12-06T18:13:43.823Z,16.23
2018-12-06T18:18:46.675Z,16.00
2018-12-06T18:23:50.255Z,16.27
2018-12-06T18:34:12.048Z,18.00
2018-12-06T18:39:14.987Z,18.70
2018-12-06T18:44:17.891Z,18.60
2018-12-06T18:49:20.786Z,17.53
2018-12-06T18:54:23.677Z,18.53
2018-12-06T18:59:26.412Z,17.53
2018-12-06T19:04:29.364Z,17.53
2018-12-06T19:09:32.088Z,17.40
2018-12-06T19:14:35.123Z,17.40
2018-12-06T19:19:38.127Z,17.33
2018-12-06T19:24:42.692Z,18.03
2018-12-06T19:29:46.913Z,19.90
2018-12-06T19:34:50.055Z,19.13
2018-12-06T19:39:52.884Z,19.60
2018-12-06T19:44:56.651Z,19.57
2018-12-06T19:49:59.574Z,18.50
2018-12-06T19:55:02.499Z,19.00
2018-12-06T20:00:08.465Z,19.07
2018-12-06T20:05:11.697Z,18.87
2018-12-06T20:10:14.975Z,17.70
2018-12-06T20:15:17.840Z,18.80
2018-12-06T20:20:23.834Z,18.83
2018-12-06T20:25:25.802Z,17.83
2018-12-06T20:30:28.640Z,18.07
2018-12-06T20:35:31.602Z,17.53
2018-12-06T20:40:34.729Z,19.20
2018-12-06T20:45:37.641Z,20.37
2018-12-06T20:50:49.157Z,21.83
2018-12-06T20:55:46.962Z,22.40
2018-12-06T21:00:49.757Z,23.40
2018-12-06T21:05:52.844Z,25.20
2018-12-06T21:10:55.640Z,24.23
2018-12-06T21:15:58.518Z,24.33
2018-12-06T21:21:01.339Z,24.73
2018-12-06T21:26:04.313Z,23.20
2018-12-06T21:31:07.258Z,22.00
2018-12-06T21:36:12.021Z,21.53
2018-12-06T21:41:15.167Z,20.17
2018-12-06T21:46:17.950Z,20.20
2018-12-06T21:51:21.710Z,19.37
2018-12-06T21:56:24.941Z,20.17
2018-12-06T22:01:27.897Z,21.10
2018-12-06T22:06:30.889Z,22.97
2018-12-06T22:11:33.845Z,23.23
2018-12-06T22:16:36.785Z,23.77
2018-12-06T22:21:40.788Z,24.17
2018-12-06T22:26:43.603Z,24.00
2018-12-06T22:31:46.471Z,22.60
2018-12-06T22:36:49.324Z,22.70
2018-12-06T22:41:52.203Z,23.27
2018-12-06T22:46:54.938Z,20.63
2018-12-06T22:51:57.870Z,19.50
2018-12-06T22:57:00.861Z,19.57
2018-12-06T23:02:03.890Z,20.53
2018-12-06T23:07:08.112Z,18.97
2018-12-06T23:12:11.053Z,18.70
2018-12-06T23:17:13.874Z,18.57
2018-12-06T23:22:17.156Z,17.93
2018-12-06T23:27:19.881Z,17.53
2018-12-06T23:32:22.817Z,18.60
2018-12-06T23:37:25.601Z,17.70
2018-12-06T23:42:28.733Z,17.23
2018-12-06T23:47:31.595Z,17.20
2018-12-06T23:52:34.520Z,15.47
2018-12-06T23:57:37.533Z,16.40
